IN-0012 weather

Pakyong Airport (Under Construction)
Sikkim, India

Public forecast

Using degrees Celsius for public forecast. Weather courtesy of forecast.io.

METAR (pilot weather report)

Closest report is Bagdogra Airport, 35.8 nm (66.3 km) SSW. Retrieved 2019/09/17 05:30 UTC (0 seconds ago):

VEBD 170530Z 01006KT 4000 -RA FEW005 SCT015 BKN030 26/24 Q1010 TEMPO 3000

TAF (pilot weather forecast)

Forecast is more than 12 hours old.

Closest forecast is Bagdogra Airport, 35.8 nm (66.3 km) SSW. Retrieved 2019/09/16 12:30 UTC (17 hours ago):

TAF VEBD 160930Z 1612/1624 16006KT 6000 SCT015 BKN090 BECMG 1614/1616 3000 TSRA BKN010 FEW030TCU/CB OVC080